sensor_id;sensor_type;location;lat;lon;timestamp;pressure;altitude;pressure_sealevel;temperature
28905;BMP280;60848;53.884;11.446;2024-03-23T00:52:06;100452.94;;;9.28
28905;BMP280;60848;53.884;11.446;2024-03-23T00:54:38;100449.16;;;9.26
28905;BMP280;60848;53.884;11.446;2024-03-23T00:57:04;100444.28;;;9.24
28905;BMP280;60848;53.884;11.446;2024-03-23T00:59:32;100450.28;;;9.25
28905;BMP280;60848;53.884;11.446;2024-03-23T01:02:00;100447.25;;;9.19
28905;BMP280;60848;53.884;11.446;2024-03-23T01:04:28;100447.56;;;9.18
28905;BMP280;60848;53.884;11.446;2024-03-23T01:06:54;100449.44;;;9.17
28905;BMP280;60848;53.884;11.446;2024-03-23T01:09:23;100441.28;;;9.19
28905;BMP280;60848;53.884;11.446;2024-03-23T01:11:52;100429.72;;;9.20
28905;BMP280;60848;53.884;11.446;2024-03-23T01:14:22;100426.69;;;9.18
28905;BMP280;60848;53.884;11.446;2024-03-23T01:16:48;100431.59;;;9.19
28905;BMP280;60848;53.884;11.446;2024-03-23T01:19:16;100426.38;;;9.19
28905;BMP280;60848;53.884;11.446;2024-03-23T01:21:42;100430.78;;;9.15
28905;BMP280;60848;53.884;11.446;2024-03-23T01:24:10;100432.63;;;9.15
28905;BMP280;60848;53.884;11.446;2024-03-23T01:26:38;100428.84;;;9.12
28905;BMP280;60848;53.884;11.446;2024-03-23T01:29:05;100423.28;;;9.14
28905;BMP280;60848;53.884;11.446;2024-03-23T01:31:35;100419.91;;;9.10
28905;BMP280;60848;53.884;11.446;2024-03-23T01:34:02;100419.50;;;9.08
28905;BMP280;60848;53.884;11.446;2024-03-23T01:36:29;100415.41;;;9.07
28905;BMP280;60848;53.884;11.446;2024-03-23T01:38:56;100407.56;;;9.07
28905;BMP280;60848;53.884;11.446;2024-03-23T01:41:24;100407.16;;;9.05
28905;BMP280;60848;53.884;11.446;2024-03-23T01:43:53;100400.78;;;8.99
28905;BMP280;60848;53.884;11.446;2024-03-23T01:46:21;100400.78;;;8.99
28905;BMP280;60848;53.884;11.446;2024-03-23T01:48:48;100400.00;;;8.98
28905;BMP280;60848;53.884;11.446;2024-03-23T01:51:15;100381.00;;;8.98
28905;BMP280;60848;53.884;11.446;2024-03-23T01:53:43;100382.84;;;8.97
28905;BMP280;60848;53.884;11.446;2024-03-23T01:56:09;100386.56;;;8.93
28905;BMP280;60848;53.884;11.446;2024-03-23T01:58:36;100381.34;;;8.93
28905;BMP280;60848;53.884;11.446;2024-03-23T02:01:04;100379.00;;;8.88
28905;BMP280;60848;53.884;11.446;2024-03-23T02:03:32;100379.38;;;8.86
28905;BMP280;60848;53.884;11.446;2024-03-23T02:05:58;100374.78;;;8.76
28905;BMP280;60848;53.884;11.446;2024-03-23T02:08:28;100364.31;;;8.73
28905;BMP280;60848;53.884;11.446;2024-03-23T02:10:59;100365.78;;;8.74
28905;BMP280;60848;53.884;11.446;2024-03-23T02:13:28;100365.00;;;8.70
28905;BMP280;60848;53.884;11.446;2024-03-23T02:15:55;100364.25;;;8.69
28905;BMP280;60848;53.884;11.446;2024-03-23T02:18:23;100351.22;;;8.69
28905;BMP280;60848;53.884;11.446;2024-03-23T02:20:50;100350.13;;;8.70
28905;BMP280;60848;53.884;11.446;2024-03-23T02:23:18;100347.53;;;8.74
28905;BMP280;60848;53.884;11.446;2024-03-23T02:25:45;100350.16;;;8.74
28905;BMP280;60848;53.884;11.446;2024-03-23T02:28:13;100351.66;;;8.75
28905;BMP280;60848;53.884;11.446;2024-03-23T02:30:39;100356.53;;;8.76
28905;BMP280;60848;53.884;11.446;2024-03-23T02:33:06;100352.81;;;8.77
28905;BMP280;60848;53.884;11.446;2024-03-23T02:35:33;100345.34;;;8.76
28905;BMP280;60848;53.884;11.446;2024-03-23T02:38:00;100339.38;;;8.75
28905;BMP280;60848;53.884;11.446;2024-03-23T02:40:28;100337.13;;;8.74
28905;BMP280;60848;53.884;11.446;2024-03-23T02:42:56;100330.44;;;8.73
28905;BMP280;60848;53.884;11.446;2024-03-23T02:45:22;100326.25;;;8.68
28905;BMP280;60848;53.884;11.446;2024-03-23T02:47:49;100330.03;;;8.71
28905;BMP280;60848;53.884;11.446;2024-03-23T02:50:18;100328.50;;;8.70
28905;BMP280;60848;53.884;11.446;2024-03-23T02:52:45;100330.38;;;8.69
28905;BMP280;60848;53.884;11.446;2024-03-23T02:55:12;100322.16;;;8.67
28905;BMP280;60848;53.884;11.446;2024-03-23T02:57:43;100317.25;;;8.62
28905;BMP280;60848;53.884;11.446;2024-03-23T03:00:12;100319.09;;;8.62
28905;BMP280;60848;53.884;11.446;2024-03-23T03:02:40;100325.44;;;8.61
28905;BMP280;60848;53.884;11.446;2024-03-23T03:05:06;100310.13;;;8.59
28905;BMP280;60848;53.884;11.446;2024-03-23T03:07:35;100306.78;;;8.59
28905;BMP280;60848;53.884;11.446;2024-03-23T03:10:01;100314.94;;;8.57
28905;BMP280;60848;53.884;11.446;2024-03-23T03:12:29;100308.25;;;8.56
28905;BMP280;60848;53.884;11.446;2024-03-23T03:14:57;100291.81;;;8.52
28905;BMP280;60848;53.884;11.446;2024-03-23T03:17:27;100291.06;;;8.52
28905;BMP280;60848;53.884;11.446;2024-03-23T03:19:53;100300.00;;;8.51
28905;BMP280;60848;53.884;11.446;2024-03-23T03:22:22;100290.66;;;8.50
28905;BMP280;60848;53.884;11.446;2024-03-23T03:24:48;100290.63;;;8.46
28905;BMP280;60848;53.884;11.446;2024-03-23T03:27:15;100299.19;;;8.47
28905;BMP280;60848;53.884;11.446;2024-03-23T03:29:44;100302.50;;;8.44
28905;BMP280;60848;53.884;11.446;2024-03-23T03:32:13;100298.41;;;8.43
28905;BMP280;60848;53.884;11.446;2024-03-23T03:34:39;100286.81;;;8.40
28905;BMP280;60848;53.884;11.446;2024-03-23T03:37:09;100283.06;;;8.38
28905;BMP280;60848;53.884;11.446;2024-03-23T03:39:35;100291.56;;;8.35
28905;BMP280;60848;53.884;11.446;2024-03-23T03:42:05;100291.88;;;8.30
28905;BMP280;60848;53.884;11.446;2024-03-23T03:44:33;100288.13;;;8.27
28905;BMP280;60848;53.884;11.446;2024-03-23T03:47:02;100282.88;;;8.24
28905;BMP280;60848;53.884;11.446;2024-03-23T03:49:30;100276.50;;;8.21
28905;BMP280;60848;53.884;11.446;2024-03-23T03:52:00;100264.94;;;8.19
28905;BMP280;60848;53.884;11.446;2024-03-23T03:54:28;100254.09;;;8.17
28905;BMP280;60848;53.884;11.446;2024-03-23T03:56:55;100263.78;;;8.16
28905;BMP280;60848;53.884;11.446;2024-03-23T03:59:21;100258.19;;;8.14
28905;BMP280;60848;53.884;11.446;2024-03-23T04:01:49;100254.44;;;8.12
28905;BMP280;60848;53.884;11.446;2024-03-23T04:04:18;100251.06;;;8.11
28905;BMP280;60848;53.884;11.446;2024-03-23T04:06:48;100244.28;;;8.06
28905;BMP280;60848;53.884;11.446;2024-03-23T04:09:14;100232.75;;;8.04
28905;BMP280;60848;53.884;11.446;2024-03-23T04:11:44;100229.00;;;8.01
28905;BMP280;60848;53.884;11.446;2024-03-23T04:14:11;100232.28;;;7.98
28905;BMP280;60848;53.884;11.446;2024-03-23T04:16:38;100240.81;;;7.95
28905;BMP280;60848;53.884;11.446;2024-03-23T04:19:04;100231.84;;;7.93
28905;BMP280;60848;53.884;11.446;2024-03-23T04:21:32;100230.00;;;7.93
28905;BMP280;60848;53.884;11.446;2024-03-23T04:24:03;100221.41;;;7.89
28905;BMP280;60848;53.884;11.446;2024-03-23T04:26:40;100225.78;;;7.85
28905;BMP280;60848;53.884;11.446;2024-03-23T04:29:07;100233.91;;;7.80
28905;BMP280;60848;53.884;11.446;2024-03-23T04:31:34;100227.16;;;7.76
28905;BMP280;60848;53.884;11.446;2024-03-23T04:34:01;100228.59;;;7.73
28905;BMP280;60848;53.884;11.446;2024-03-23T04:36:28;100231.47;;;7.68
28905;BMP280;60848;53.884;11.446;2024-03-23T04:38:55;100228.00;;;7.61
28905;BMP280;60848;53.884;11.446;2024-03-23T04:41:24;100221.28;;;7.60
28905;BMP280;60848;53.884;11.446;2024-03-23T04:43:52;100219.06;;;7.58
28905;BMP280;60848;53.884;11.446;2024-03-23T04:46:19;100218.25;;;7.54
28905;BMP280;60848;53.884;11.446;2024-03-23T04:48:46;100211.81;;;7.48
28905;BMP280;60848;53.884;11.446;2024-03-23T04:51:22;100210.34;;;7.47
28905;BMP280;60848;53.884;11.446;2024-03-23T04:53:50;100206.59;;;7.45
28905;BMP280;60848;53.884;11.446;2024-03-23T04:56:19;100211.31;;;7.39
28905;BMP280;60848;53.884;11.446;2024-03-23T04:58:51;100211.66;;;7.38
28905;BMP280;60848;53.884;11.446;2024-03-23T05:01:18;100207.59;;;7.37
28905;BMP280;60848;53.884;11.446;2024-03-23T05:03:46;100196.41;;;7.36
28905;BMP280;60848;53.884;11.446;2024-03-23T05:06:12;100191.91;;;7.33
28905;BMP280;60848;53.884;11.446;2024-03-23T05:08:39;100205.59;;;7.30
28905;BMP280;60848;53.884;11.446;2024-03-23T05:11:06;100198.09;;;7.25
28905;BMP280;60848;53.884;11.446;2024-03-23T05:13:33;100196.88;;;7.19
28905;BMP280;60848;53.884;11.446;2024-03-23T05:16:01;100202.75;;;7.16
28905;BMP280;60848;53.884;11.446;2024-03-23T05:18:28;100211.59;;;7.12
28905;BMP280;60848;53.884;11.446;2024-03-23T05:20:56;100215.91;;;7.04
28905;BMP280;60848;53.884;11.446;2024-03-23T05:23:23;100221.44;;;7.03
28905;BMP280;60848;53.884;11.446;2024-03-23T05:25:50;100210.28;;;7.02
28905;BMP280;60848;53.884;11.446;2024-03-23T05:28:17;100207.34;;;7.04
28905;BMP280;60848;53.884;11.446;2024-03-23T05:30:44;100205.91;;;7.06
28905;BMP280;60848;53.884;11.446;2024-03-23T05:33:18;100206.75;;;7.10
28905;BMP280;60848;53.884;11.446;2024-03-23T05:35:55;100198.59;;;7.12
28905;BMP280;60848;53.884;11.446;2024-03-23T05:38:22;100192.31;;;7.13
28905;BMP280;60848;53.884;11.446;2024-03-23T05:40:53;100190.78;;;7.12
28905;BMP280;60848;53.884;11.446;2024-03-23T05:43:21;100190.47;;;7.13
28905;BMP280;60848;53.884;11.446;2024-03-23T05:45:53;100198.28;;;7.13
28905;BMP280;60848;53.884;11.446;2024-03-23T05:48:22;100187.13;;;7.13
28905;BMP280;60848;53.884;11.446;2024-03-23T05:50:49;100187.06;;;7.09
28905;BMP280;60848;53.884;11.446;2024-03-23T05:53:17;100184.78;;;7.08
28905;BMP280;60848;53.884;11.446;2024-03-23T05:55:44;100194.41;;;7.07
28905;BMP280;60848;53.884;11.446;2024-03-23T05:58:14;100206.34;;;7.08
28905;BMP280;60848;53.884;11.446;2024-03-23T06:00:44;100204.50;;;7.09
28905;BMP280;60848;53.884;11.446;2024-03-23T06:03:11;100198.19;;;7.10
28905;BMP280;60848;53.884;11.446;2024-03-23T06:05:39;100191.91;;;7.11
28905;BMP280;60848;53.884;11.446;2024-03-23T06:08:08;100187.13;;;7.13
28905;BMP280;60848;53.884;11.446;2024-03-23T06:10:36;100188.59;;;7.14
28905;BMP280;60848;53.884;11.446;2024-03-23T06:13:02;100190.84;;;7.15
28905;BMP280;60848;53.884;11.446;2024-03-23T06:15:30;100186.06;;;7.17
28905;BMP280;60848;53.884;11.446;2024-03-23T06:17:57;100182.34;;;7.18
28905;BMP280;60848;53.884;11.446;2024-03-23T06:20:27;100179.41;;;7.20
28905;BMP280;60848;53.884;11.446;2024-03-23T06:22:57;100174.31;;;7.23
28905;BMP280;60848;53.884;11.446;2024-03-23T06:25:25;100165.38;;;7.24
28905;BMP280;60848;53.884;11.446;2024-03-23T06:27:51;100153.88;;;7.25
28905;BMP280;60848;53.884;11.446;2024-03-23T06:30:21;100152.78;;;7.26
28905;BMP280;60848;53.884;11.446;2024-03-23T06:32:47;100147.22;;;7.28
28905;BMP280;60848;53.884;11.446;2024-03-23T06:35:15;100144.28;;;7.29
28905;BMP280;60848;53.884;11.446;2024-03-23T06:37:42;100145.38;;;7.28
28905;BMP280;60848;53.884;11.446;2024-03-23T06:40:11;100139.50;;;7.31
28905;BMP280;60848;53.884;11.446;2024-03-23T06:42:37;100147.34;;;7.35
28905;BMP280;60848;53.884;11.446;2024-03-23T06:45:08;100150.38;;;7.37
28905;BMP280;60848;53.884;11.446;2024-03-23T06:47:34;100151.09;;;7.37
28905;BMP280;60848;53.884;11.446;2024-03-23T06:50:02;100151.50;;;7.39
28905;BMP280;60848;53.884;11.446;2024-03-23T06:52:29;100144.84;;;7.42
28905;BMP280;60848;53.884;11.446;2024-03-23T06:54:59;100140.81;;;7.44
28905;BMP280;60848;53.884;11.446;2024-03-23T06:57:27;100134.53;;;7.45
28905;BMP280;60848;53.884;11.446;2024-03-23T06:59:55;100130.81;;;7.46
28905;BMP280;60848;53.884;11.446;2024-03-23T07:02:24;100141.66;;;7.52
28905;BMP280;60848;53.884;11.446;2024-03-23T07:04:52;100140.97;;;7.55
28905;BMP280;60848;53.884;11.446;2024-03-23T07:07:18;100148.78;;;7.55
28905;BMP280;60848;53.884;11.446;2024-03-23T07:09:46;100147.66;;;7.56
28905;BMP280;60848;53.884;11.446;2024-03-23T07:12:12;100154.03;;;7.58
28905;BMP280;60848;53.884;11.446;2024-03-23T07:14:41;100144.38;;;7.59
28905;BMP280;60848;53.884;11.446;2024-03-23T07:17:07;100142.53;;;7.59
28905;BMP280;60848;53.884;11.446;2024-03-23T07:19:37;100137.72;;;7.61
28905;BMP280;60848;53.884;11.446;2024-03-23T07:22:04;100134.41;;;7.64
28905;BMP280;60848;53.884;11.446;2024-03-23T07:24:31;100128.16;;;7.69
28905;BMP280;60848;53.884;11.446;2024-03-23T07:26:58;100125.97;;;7.74
28905;BMP280;60848;53.884;11.446;2024-03-23T07:29:28;100130.16;;;7.79
28905;BMP280;60848;53.884;11.446;2024-03-23T07:31:56;100129.91;;;7.87
28905;BMP280;60848;53.884;11.446;2024-03-23T07:34:25;100134.13;;;7.99
28905;BMP280;60848;53.884;11.446;2024-03-23T07:36:52;100134.00;;;8.18
28905;BMP280;60848;53.884;11.446;2024-03-23T07:39:19;100136.41;;;8.37
28905;BMP280;60848;53.884;11.446;2024-03-23T07:41:45;100137.75;;;8.54
28905;BMP280;60848;53.884;11.446;2024-03-23T07:44:13;100128.56;;;8.67
28905;BMP280;60848;53.884;11.446;2024-03-23T07:46:39;100119.47;;;8.94
28905;BMP280;60848;53.884;11.446;2024-03-23T07:49:08;100123.41;;;9.17
28905;BMP280;60848;53.884;11.446;2024-03-23T07:51:34;100119.44;;;9.38
28905;BMP280;60848;53.884;11.446;2024-03-23T07:54:04;100120.22;;;9.45
28905;BMP280;60848;53.884;11.446;2024-03-23T07:56:30;100116.47;;;9.43
28905;BMP280;60848;53.884;11.446;2024-03-23T07:58:58;100112.03;;;9.47
28905;BMP280;60848;53.884;11.446;2024-03-23T08:01:24;100111.69;;;9.55
28905;BMP280;60848;53.884;11.446;2024-03-23T08:03:52;100109.09;;;9.55
28905;BMP280;60848;53.884;11.446;2024-03-23T08:06:20;100106.47;;;9.55
28905;BMP280;60848;53.884;11.446;2024-03-23T08:08:51;100104.19;;;9.47
28905;BMP280;60848;53.884;11.446;2024-03-23T08:11:25;100107.25;;;9.56
28905;BMP280;60848;53.884;11.446;2024-03-23T08:13:53;100108.38;;;9.62
28905;BMP280;60848;53.884;11.446;2024-03-23T08:16:19;100103.94;;;9.69
28905;BMP280;60848;53.884;11.446;2024-03-23T08:18:47;100095.41;;;9.79
28905;BMP280;60848;53.884;11.446;2024-03-23T08:21:13;100098.78;;;9.87
28905;BMP280;60848;53.884;11.446;2024-03-23T08:23:45;100099.56;;;9.94
28905;BMP280;60848;53.884;11.446;2024-03-23T08:26:12;100096.63;;;10.06
28905;BMP280;60848;53.884;11.446;2024-03-23T08:28:39;100102.97;;;10.12
28905;BMP280;60848;53.884;11.446;2024-03-23T08:31:09;100086.16;;;10.10
28905;BMP280;60848;53.884;11.446;2024-03-23T08:33:40;100093.25;;;10.13
28905;BMP280;60848;53.884;11.446;2024-03-23T08:36:09;100081.34;;;10.15
28905;BMP280;60848;53.884;11.446;2024-03-23T08:38:38;100090.69;;;10.23
28905;BMP280;60848;53.884;11.446;2024-03-23T08:41:09;100082.44;;;10.25
28905;BMP280;60848;53.884;11.446;2024-03-23T08:43:40;100079.84;;;10.35
28905;BMP280;60848;53.884;11.446;2024-03-23T08:46:07;100083.63;;;10.52
28905;BMP280;60848;53.884;11.446;2024-03-23T08:48:36;100073.94;;;10.63
28905;BMP280;60848;53.884;11.446;2024-03-23T08:51:03;100080.28;;;10.73
28905;BMP280;60848;53.884;11.446;2024-03-23T08:53:33;100070.94;;;10.75
28905;BMP280;60848;53.884;11.446;2024-03-23T08:56:00;100073.91;;;10.95
28905;BMP280;60848;53.884;11.446;2024-03-23T08:58:30;100069.38;;;11.13
28905;BMP280;60848;53.884;11.446;2024-03-23T09:01:03;100064.84;;;11.27
28905;BMP280;60848;53.884;11.446;2024-03-23T09:03:30;100063.28;;;11.47
28905;BMP280;60848;53.884;11.446;2024-03-23T09:05:58;100060.56;;;11.65
28905;BMP280;60848;53.884;11.446;2024-03-23T09:08:25;100059.75;;;11.85
28905;BMP280;60848;53.884;11.446;2024-03-23T09:10:55;100058.88;;;12.06
28905;BMP280;60848;53.884;11.446;2024-03-23T09:13:21;100063.56;;;12.28
28905;BMP280;60848;53.884;11.446;2024-03-23T09:15:51;100056.72;;;12.45
28905;BMP280;60848;53.884;11.446;2024-03-23T09:18:24;100051.66;;;12.65
28905;BMP280;60848;53.884;11.446;2024-03-23T09:20:52;100048.16;;;12.78
28905;BMP280;60848;53.884;11.446;2024-03-23T09:23:19;100055.22;;;12.85
28905;BMP280;60848;53.884;11.446;2024-03-23T09:25:49;100058.19;;;12.87
28905;BMP280;60848;53.884;11.446;2024-03-23T09:28:15;100056.88;;;13.05
28905;BMP280;60848;53.884;11.446;2024-03-23T09:30:42;100053.34;;;13.19
28905;BMP280;60848;53.884;11.446;2024-03-23T09:33:10;100050.19;;;13.31
28905;BMP280;60848;53.884;11.446;2024-03-23T09:35:38;100052.00;;;13.37
28905;BMP280;60848;53.884;11.446;2024-03-23T09:38:04;100054.66;;;13.34
28905;BMP280;60848;53.884;11.446;2024-03-23T09:40:39;100050.66;;;13.26
28905;BMP280;60848;53.884;11.446;2024-03-23T09:43:06;100049.00;;;13.35
28905;BMP280;60848;53.884;11.446;2024-03-23T09:45:38;100041.19;;;13.32
28905;BMP280;60848;53.884;11.446;2024-03-23T09:48:09;100047.22;;;13.29
28905;BMP280;60848;53.884;11.446;2024-03-23T09:50:38;100044.72;;;13.18
28905;BMP280;60848;53.884;11.446;2024-03-23T09:53:05;100038.44;;;13.09
28905;BMP280;60848;53.884;11.446;2024-03-23T09:55:35;100043.00;;;13.05
28905;BMP280;60848;53.884;11.446;2024-03-23T09:58:02;100041.06;;;13.09
28905;BMP280;60848;53.884;11.446;2024-03-23T10:00:31;100039.50;;;13.15
28905;BMP280;60848;53.884;11.446;2024-03-23T10:02:58;100045.03;;;13.24
28905;BMP280;60848;53.884;11.446;2024-03-23T10:05:30;100030.59;;;13.39
28905;BMP280;60848;53.884;11.446;2024-03-23T10:08:00;100040.88;;;13.56
28905;BMP280;60848;53.884;11.446;2024-03-23T10:10:27;100021.19;;;13.68
28905;BMP280;60848;53.884;11.446;2024-03-23T10:12:53;100018.84;;;13.73
28905;BMP280;60848;53.884;11.446;2024-03-23T10:15:23;100013.41;;;13.87
28905;BMP280;60848;53.884;11.446;2024-03-23T10:17:50;100012.19;;;13.92
28905;BMP280;60848;53.884;11.446;2024-03-23T10:20:19;100016.97;;;14.01
28905;BMP280;60848;53.884;11.446;2024-03-23T10:22:48;100017.34;;;13.99
28905;BMP280;60848;53.884;11.446;2024-03-23T10:25:17;100017.63;;;14.05
28905;BMP280;60848;53.884;11.446;2024-03-23T10:27:44;100011.16;;;14.09
28905;BMP280;60848;53.884;11.446;2024-03-23T10:30:12;100016.13;;;14.03
28905;BMP280;60848;53.884;11.446;2024-03-23T10:32:43;100015.75;;;14.05
28905;BMP280;60848;53.884;11.446;2024-03-23T10:35:16;100015.84;;;13.98
28905;BMP280;60848;53.884;11.446;2024-03-23T10:37:44;99995.50;;;14.02
28905;BMP280;60848;53.884;11.446;2024-03-23T10:40:13;99997.50;;;14.18
28905;BMP280;60848;53.884;11.446;2024-03-23T10:42:41;99994.69;;;14.28
28905;BMP280;60848;53.884;11.446;2024-03-23T10:45:09;99988.00;;;14.47
28905;BMP280;60848;53.884;11.446;2024-03-23T10:47:36;99989.34;;;14.55
28905;BMP280;60848;53.884;11.446;2024-03-23T10:50:04;99979.00;;;14.64
28905;BMP280;60848;53.884;11.446;2024-03-23T10:52:32;99978.03;;;14.74
28905;BMP280;60848;53.884;11.446;2024-03-23T10:54:59;99971.03;;;14.87
28905;BMP280;60848;53.884;11.446;2024-03-23T10:57:29;99972.97;;;15.02
28905;BMP280;60848;53.884;11.446;2024-03-23T11:00:01;99967.81;;;15.15
28905;BMP280;60848;53.884;11.446;2024-03-23T11:02:28;99963.41;;;15.28
28905;BMP280;60848;53.884;11.446;2024-03-23T11:04:56;99969.47;;;15.41
28905;BMP280;60848;53.884;11.446;2024-03-23T11:07:32;99965.94;;;15.63
28905;BMP280;60848;53.884;11.446;2024-03-23T11:10:00;99969.66;;;15.82
28905;BMP280;60848;53.884;11.446;2024-03-23T11:12:28;99957.59;;;15.81
28905;BMP280;60848;53.884;11.446;2024-03-23T11:15:01;99953.31;;;15.87
28905;BMP280;60848;53.884;11.446;2024-03-23T11:17:28;99954.53;;;15.98
28905;BMP280;60848;53.884;11.446;2024-03-23T11:22:47;99938.59;;;16.31
28905;BMP280;60848;53.884;11.446;2024-03-23T11:25:17;99931.53;;;16.28
28905;BMP280;60848;53.884;11.446;2024-03-23T11:27:44;99937.19;;;16.14
28905;BMP280;60848;53.884;11.446;2024-03-23T11:30:15;99948.78;;;15.87
28905;BMP280;60848;53.884;11.446;2024-03-23T11:32:42;99962.94;;;15.77
28905;BMP280;60848;53.884;11.446;2024-03-23T11:35:10;99991.72;;;15.72
28905;BMP280;60848;53.884;11.446;2024-03-23T11:37:37;99965.28;;;15.59
28905;BMP280;60848;53.884;11.446;2024-03-23T11:40:17;99959.03;;;15.37
28905;BMP280;60848;53.884;11.446;2024-03-23T11:42:46;99954.88;;;15.20
28905;BMP280;60848;53.884;11.446;2024-03-23T11:45:15;99951.59;;;15.16
28905;BMP280;60848;53.884;11.446;2024-03-23T11:47:44;99951.44;;;15.23
28905;BMP280;60848;53.884;11.446;2024-03-23T11:50:19;99954.50;;;15.38
28905;BMP280;60848;53.884;11.446;2024-03-23T11:52:45;99951.19;;;15.34
28905;BMP280;60848;53.884;11.446;2024-03-23T11:55:16;99946.75;;;15.47
28905;BMP280;60848;53.884;11.446;2024-03-23T11:57:43;99934.16;;;15.38
28905;BMP280;60848;53.884;11.446;2024-03-23T12:00:25;99932.34;;;15.35
28905;BMP280;60848;53.884;11.446;2024-03-23T12:02:52;99926.84;;;15.30
28905;BMP280;60848;53.884;11.446;2024-03-23T12:05:22;99937.84;;;15.57
28905;BMP280;60848;53.884;11.446;2024-03-23T12:07:48;99927.97;;;15.77
28905;BMP280;60848;53.884;11.446;2024-03-23T12:10:16;99930.88;;;15.95
28905;BMP280;60848;53.884;11.446;2024-03-23T12:12:59;99931.69;;;16.08
28905;BMP280;60848;53.884;11.446;2024-03-23T12:15:30;99928.66;;;16.22
28905;BMP280;60848;53.884;11.446;2024-03-23T12:18:06;99911.94;;;16.41
28905;BMP280;60848;53.884;11.446;2024-03-23T12:20:34;99903.63;;;16.55
28905;BMP280;60848;53.884;11.446;2024-03-23T12:23:08;99903.94;;;16.70
28905;BMP280;60848;53.884;11.446;2024-03-23T12:25:37;99890.72;;;16.70
28905;BMP280;60848;53.884;11.446;2024-03-23T12:28:04;99894.00;;;16.49
28905;BMP280;60848;53.884;11.446;2024-03-23T12:30:35;99911.78;;;16.32
28905;BMP280;60848;53.884;11.446;2024-03-23T12:33:02;99918.81;;;16.10
28905;BMP280;60848;53.884;11.446;2024-03-23T12:35:32;99914.97;;;15.98
28905;BMP280;60848;53.884;11.446;2024-03-23T12:37:59;99915.69;;;15.86
28905;BMP280;60848;53.884;11.446;2024-03-23T12:40:27;99917.91;;;15.72
28905;BMP280;60848;53.884;11.446;2024-03-23T12:42:54;99910.75;;;16.30
28905;BMP280;60848;53.884;11.446;2024-03-23T12:45:22;99910.56;;;16.87
28905;BMP280;60848;53.884;11.446;2024-03-23T12:47:49;99896.59;;;17.11
28905;BMP280;60848;53.884;11.446;2024-03-23T12:50:18;99895.34;;;17.16
28905;BMP280;60848;53.884;11.446;2024-03-23T12:52:45;99902.72;;;17.21
28905;BMP280;60848;53.884;11.446;2024-03-23T12:55:14;99909.94;;;17.08
28905;BMP280;60848;53.884;11.446;2024-03-23T12:57:43;99913.31;;;16.58
28905;BMP280;60848;53.884;11.446;2024-03-23T13:00:12;99925.50;;;15.98
28905;BMP280;60848;53.884;11.446;2024-03-23T13:02:39;99946.84;;;15.43
28905;BMP280;60848;53.884;11.446;2024-03-23T13:05:08;99946.88;;;14.92
28905;BMP280;60848;53.884;11.446;2024-03-23T13:07:35;99941.91;;;14.58
28905;BMP280;60848;53.884;11.446;2024-03-23T13:10:06;99936.41;;;14.10
28905;BMP280;60848;53.884;11.446;2024-03-23T13:12:33;99952.03;;;13.74
28905;BMP280;60848;53.884;11.446;2024-03-23T13:15:00;99953.16;;;13.50
28905;BMP280;60848;53.884;11.446;2024-03-23T13:17:27;99968.38;;;13.36
28905;BMP280;60848;53.884;11.446;2024-03-23T13:19:54;99979.69;;;13.29
28905;BMP280;60848;53.884;11.446;2024-03-23T13:22:23;99975.50;;;13.05
28905;BMP280;60848;53.884;11.446;2024-03-23T13:24:52;99985.47;;;12.87
28905;BMP280;60848;53.884;11.446;2024-03-23T13:27:19;99982.38;;;12.96
28905;BMP280;60848;53.884;11.446;2024-03-23T13:29:46;99972.28;;;13.21
28905;BMP280;60848;53.884;11.446;2024-03-23T13:32:13;99974.75;;;14.07
28905;BMP280;60848;53.884;11.446;2024-03-23T13:34:43;99970.81;;;14.97
28905;BMP280;60848;53.884;11.446;2024-03-23T13:37:09;99972.50;;;15.23
28905;BMP280;60848;53.884;11.446;2024-03-23T13:39:38;99975.88;;;15.08
28905;BMP280;60848;53.884;11.446;2024-03-23T13:42:05;99960.66;;;14.60
28905;BMP280;60848;53.884;11.446;2024-03-23T13:44:34;99961.41;;;14.41
28905;BMP280;60848;53.884;11.446;2024-03-23T13:47:00;99964.22;;;14.07
28905;BMP280;60848;53.884;11.446;2024-03-23T13:49:30;99973.06;;;13.74
28905;BMP280;60848;53.884;11.446;2024-03-23T13:51:57;99972.59;;;13.56
28905;BMP280;60848;53.884;11.446;2024-03-23T13:54:25;99971.16;;;13.48
28905;BMP280;60848;53.884;11.446;2024-03-23T13:56:56;99989.81;;;13.31
28905;BMP280;60848;53.884;11.446;2024-03-23T13:59:23;99997.16;;;13.13
28905;BMP280;60848;53.884;11.446;2024-03-23T14:01:50;99991.72;;;12.97
28905;BMP280;60848;53.884;11.446;2024-03-23T14:04:18;100002.75;;;12.85
28905;BMP280;60848;53.884;11.446;2024-03-23T14:06:46;100002.94;;;12.67
28905;BMP280;60848;53.884;11.446;2024-03-23T14:09:14;100000.91;;;12.45
28905;BMP280;60848;53.884;11.446;2024-03-23T14:11:41;99995.09;;;12.27
28905;BMP280;60848;53.884;11.446;2024-03-23T14:14:10;99995.91;;;12.13
28905;BMP280;60848;53.884;11.446;2024-03-23T14:16:37;100003.44;;;12.07
28905;BMP280;60848;53.884;11.446;2024-03-23T14:19:06;100002.31;;;12.08
28905;BMP280;60848;53.884;11.446;2024-03-23T14:21:33;100004.13;;;12.18
28905;BMP280;60848;53.884;11.446;2024-03-23T14:24:01;100017.56;;;12.24
28905;BMP280;60848;53.884;11.446;2024-03-23T14:26:28;100006.31;;;12.23
28905;BMP280;60848;53.884;11.446;2024-03-23T14:28:55;99996.19;;;12.25
28905;BMP280;60848;53.884;11.446;2024-03-23T14:31:26;100001.41;;;12.29
28905;BMP280;60848;53.884;11.446;2024-03-23T14:33:55;100002.16;;;12.33
28905;BMP280;60848;53.884;11.446;2024-03-23T14:36:22;99997.59;;;12.37
28905;BMP280;60848;53.884;11.446;2024-03-23T14:38:50;99992.00;;;12.32
28905;BMP280;60848;53.884;11.446;2024-03-23T14:41:18;99996.91;;;12.33
28905;BMP280;60848;53.884;11.446;2024-03-23T14:43:45;99990.81;;;12.40
28905;BMP280;60848;53.884;11.446;2024-03-23T14:46:14;99990.41;;;12.45
28905;BMP280;60848;53.884;11.446;2024-03-23T14:48:44;99988.50;;;12.49
28905;BMP280;60848;53.884;11.446;2024-03-23T14:51:12;99990.69;;;12.54
28905;BMP280;60848;53.884;11.446;2024-03-23T14:53:40;99986.19;;;12.54